Time;durP1;ratioP1;P1;durP2;ratioP2;P2;SDS_P1;SDS_P2;PMS_P1;PMS_P2;Temp;Humidity;BMP_temperature;BMP_pressure;BME280_temperature;BME280_humidity;BME280_pressure;Samples;Min_cycle;Max_cycle;Signal;HPM_P1;HPM_P2
2024/04/08 00:01:59;;;;;;;;;;;;;;;15.85;46.08;101428.34;5458601;26;1286;-56
2024/04/08 00:04:24;;;;;;;;;;;;;;;15.72;45.69;101422.94;5458432;26;1826;-54
2024/04/08 00:06:50;;;;;;;;;;;;;;;17.15;45.89;101428.50;5458787;26;2790;-54
2024/04/08 00:09:15;;;;;;;;;;;;;;;16.16;46.79;101431.84;5437663;26;1263;-51
2024/04/08 00:11:41;;;;;;;;;;;;;;;17.60;45.87;101428.25;5454976;26;1287;-52
2024/04/08 00:14:07;;;;;;;;;;;;;;;17.24;47.17;101429.72;5458318;26;1210;-55
2024/04/08 00:16:32;;;;;;;;;;;;;;;16.46;47.66;101435.41;5458386;26;1257;-54
2024/04/08 00:18:58;;;;;;;;;;;;;;;16.18;47.19;101438.91;5457929;26;1238;-54
2024/04/08 00:21:24;;;;;;;;;;;;;;;15.91;46.92;101432.47;5457979;26;1304;-55
2024/04/08 00:23:49;;;;;;;;;;;;;;;16.85;47.41;101438.31;5457460;26;1829;-55
2024/04/08 00:26:15;;;;;;;;;;;;;;;16.22;47.58;101437.75;5457821;26;1504;-56
2024/04/08 00:28:40;;;;;;;;;;;;;;;15.98;47.01;101439.13;5458565;26;1232;-57
2024/04/08 00:31:07;;;;;;;;;;;;;;;17.33;46.99;101441.56;5457729;26;1120;-56
2024/04/08 00:33:33;;;;;;;;;;;;;;;16.37;47.63;101454.53;5457703;26;1246;-56
2024/04/08 00:35:59;;;;;;;;;;;;;;;16.06;47.10;101446.66;5457355;26;2732;-55
2024/04/08 00:38:24;;;;;;;;;;;;;;;15.98;46.31;101448.88;5457856;26;1289;-53
2024/04/08 00:40:50;;;;;;;;;;;;;;;15.93;45.33;101443.84;5425871;26;1173;-53
2024/04/08 00:43:15;;;;;;;;;;;;;;;16.06;46.38;101448.44;5457477;26;1823;-56
2024/04/08 00:45:41;;;;;;;;;;;;;;;16.64;46.49;101448.50;5457590;26;1230;-53
2024/04/08 00:48:07;;;;;;;;;;;;;;;15.93;46.69;101441.19;5457310;26;1233;-55
2024/04/08 00:50:32;;;;;;;;;;;;;;;15.86;46.21;101450.44;5425891;26;1148;-54
2024/04/08 00:52:58;;;;;;;;;;;;;;;15.70;45.70;101446.03;5426043;26;1584;-55
2024/04/08 00:55:23;;;;;;;;;;;;;;;16.17;46.51;101440.69;5449358;26;1272;-54
2024/04/08 00:57:49;;;;;;;;;;;;;;;16.64;46.59;101445.84;5445920;26;995;-53
2024/04/08 01:00:15;;;;;;;;;;;;;;;15.96;46.99;101445.44;5433362;26;1280;-53
2024/04/08 01:02:40;;;;;;;;;;;;;;;15.81;46.29;101450.72;5457485;26;1165;-50
2024/04/08 01:05:06;;;;;;;;;;;;;;;15.61;45.91;101443.91;5425938;26;1833;-52
2024/04/08 01:07:32;;;;;;;;;;;;;;;15.66;45.40;101441.84;5457950;26;2816;-50
2024/04/08 01:09:58;;;;;;;;;;;;;;;16.07;46.22;101452.78;5457351;26;1122;-53
2024/04/08 01:12:23;;;;;;;;;;;;;;;16.39;46.43;101450.00;5445264;26;1175;-53
2024/04/08 01:14:49;;;;;;;;;;;;;;;15.82;46.84;101454.19;5457166;26;1312;-52
2024/04/08 01:17:16;;;;;;;;;;;;;;;15.70;46.49;101453.16;5457235;26;1258;-52
2024/04/08 01:19:42;;;;;;;;;;;;;;;16.59;46.51;101453.22;5425480;26;1365;-52
2024/04/08 01:22:08;;;;;;;;;;;;;;;15.97;46.75;101455.97;5458041;26;1216;-54
2024/04/08 01:24:33;;;;;;;;;;;;;;;15.71;45.97;101455.72;5456638;26;1857;-54
2024/04/08 01:27:00;;;;;;;;;;;;;;;15.60;45.84;101463.44;5457252;26;1441;-54
2024/04/08 01:29:26;;;;;;;;;;;;;;;17.34;45.50;101460.09;5456728;26;1318;-54
2024/04/08 01:31:51;;;;;;;;;;;;;;;16.20;46.94;101464.38;5457104;26;1348;-52
2024/04/08 01:34:17;;;;;;;;;;;;;;;15.85;46.53;101459.34;5456882;26;1285;-54
2024/04/08 01:36:43;;;;;;;;;;;;;;;15.71;46.21;101460.16;5456960;26;2782;-52
2024/04/08 01:39:09;;;;;;;;;;;;;;;16.60;46.48;101470.91;5425174;26;1341;-55
2024/04/08 01:41:35;;;;;;;;;;;;;;;15.88;46.92;101470.63;5456525;26;1159;-55
2024/04/08 01:44:00;;;;;;;;;;;;;;;15.68;46.48;101466.50;5456738;26;1849;-54
2024/04/08 01:46:26;;;;;;;;;;;;;;;15.76;46.35;101461.59;5456901;26;1269;-56
2024/04/08 01:48:51;;;;;;;;;;;;;;;17.29;45.57;101456.00;5447831;26;1384;-54
2024/04/08 01:51:17;;;;;;;;;;;;;;;16.14;47.01;101464.75;5441929;26;1280;-55
2024/04/08 01:53:42;;;;;;;;;;;;;;;15.84;46.67;101465.59;5455355;26;1120;-51
2024/04/08 01:56:08;;;;;;;;;;;;;;;15.66;45.93;101463.06;5425549;26;1242;-53
2024/04/08 01:58:33;;;;;;;;;;;;;;;17.15;45.66;101463.06;5456488;26;1296;-56
2024/04/08 02:00:59;;;;;;;;;;;;;;;16.02;47.36;101467.19;5456240;26;1226;-55
2024/04/08 02:03:24;;;;;;;;;;;;;;;15.74;46.51;101473.22;5456352;26;1826;-54
2024/04/08 02:05:50;;;;;;;;;;;;;;;15.56;45.88;101468.06;5446602;26;2667;-53
2024/04/08 02:08:15;;;;;;;;;;;;;;;17.13;45.81;101470.31;5449752;26;1168;-54
2024/04/08 02:10:43;;;;;;;;;;;;;;;16.12;46.88;101475.47;5407840;26;1266;-55
2024/04/08 02:13:08;;;;;;;;;;;;;;;16.64;47.12;101483.88;5455838;26;1226;-56
2024/04/08 02:15:34;;;;;;;;;;;;;;;16.68;46.87;101484.56;5456306;26;1148;-56
2024/04/08 02:17:59;;;;;;;;;;;;;;;16.07;47.16;101487.28;5432391;26;1124;-56
2024/04/08 02:20:25;;;;;;;;;;;;;;;15.92;46.39;101481.91;5456353;26;1096;-56
2024/04/08 02:22:51;;;;;;;;;;;;;;;15.69;46.38;101483.25;5456659;26;1310;-54
2024/04/08 02:25:17;;;;;;;;;;;;;;;17.03;46.20;101488.63;5455731;26;1826;-56
2024/04/08 02:27:43;;;;;;;;;;;;;;;16.06;47.19;101485.59;5455769;26;1579;-55
2024/04/08 02:30:09;;;;;;;;;;;;;;;17.18;46.72;101491.28;5438572;26;1249;-57
2024/04/08 02:32:35;;;;;;;;;;;;;;;16.59;47.35;101490.41;5449625;26;1168;-55
2024/04/08 02:35:01;;;;;;;;;;;;;;;16.08;47.29;101484.53;5456082;26;1167;-54
2024/04/08 02:37:26;;;;;;;;;;;;;;;16.14;47.04;101484.22;5455962;26;2767;-54
2024/04/08 02:39:52;;;;;;;;;;;;;;;16.81;46.82;101482.00;5455976;26;1247;-54
2024/04/08 02:42:17;;;;;;;;;;;;;;;16.19;47.01;101470.66;5450138;26;1162;-55
2024/04/08 02:44:43;;;;;;;;;;;;;;;15.96;46.30;101478.16;5438125;26;1818;-55
2024/04/08 02:47:08;;;;;;;;;;;;;;;15.98;46.03;101470.09;5451655;26;2539;-54
2024/04/08 02:49:34;;;;;;;;;;;;;;;17.16;46.13;101467.44;5466599;26;2142;-53
2024/04/08 02:51:59;;;;;;;;;;;;;;;16.11;47.25;101467.59;5456639;26;1252;-54
2024/04/08 02:54:25;;;;;;;;;;;;;;;16.00;46.19;101468.22;5456455;26;1179;-56
2024/04/08 02:56:50;;;;;;;;;;;;;;;17.46;45.59;101469.09;5456587;26;1481;-57
2024/04/08 02:59:16;;;;;;;;;;;;;;;16.31;47.07;101466.41;5456191;26;1182;-56
2024/04/08 03:01:41;;;;;;;;;;;;;;;15.96;46.54;101469.34;5455797;26;1349;-54
2024/04/08 03:04:07;;;;;;;;;;;;;;;15.86;46.21;101464.56;5439220;26;1852;-53
2024/04/08 03:06:32;;;;;;;;;;;;;;;16.90;46.92;101464.59;5448066;26;1321;-55
2024/04/08 03:08:58;;;;;;;;;;;;;;;16.71;46.72;101467.56;5431975;26;1218;-52
2024/04/08 03:11:23;;;;;;;;;;;;;;;16.05;47.17;101465.31;5452665;26;1180;-55
2024/04/08 03:13:49;;;;;;;;;;;;;;;15.94;46.26;101458.81;5458965;26;1170;-54
2024/04/08 03:16:14;;;;;;;;;;;;;;;15.81;46.04;101460.47;5456175;26;1178;-55
2024/04/08 03:18:40;;;;;;;;;;;;;;;15.73;45.18;101464.41;5454724;26;1221;-52
2024/04/08 03:21:05;;;;;;;;;;;;;;;16.81;46.45;101467.84;5459569;26;1241;-57
2024/04/08 03:23:31;;;;;;;;;;;;;;;16.14;46.56;101464.75;5459013;26;1872;-53
2024/04/08 03:26:03;;;;;;;;;;;;;;;15.76;46.56;101469.56;5459063;26;1291;-53
2024/04/08 03:28:29;;;;;;;;;;;;;;;17.12;46.15;101474.75;5459494;26;1174;-55
2024/04/08 03:30:55;;;;;;;;;;;;;;;15.98;47.19;101464.78;5459500;26;1230;-54
2024/04/08 03:33:20;;;;;;;;;;;;;;;16.34;47.63;101460.91;5442950;26;1293;-57
2024/04/08 03:35:46;;;;;;;;;;;;;;;16.71;46.75;101467.56;5423100;26;1338;-56
2024/04/08 03:38:11;;;;;;;;;;;;;;;15.94;47.33;101447.34;5426414;26;1413;-57
2024/04/08 03:40:37;;;;;;;;;;;;;;;17.41;46.64;101462.34;5428781;26;1551;-56
2024/04/08 03:43:02;;;;;;;;;;;;;;;16.45;47.15;101478.00;5429148;26;1869;-54
2024/04/08 03:45:28;;;;;;;;;;;;;;;17.82;46.35;101476.50;5431166;26;1421;-56
2024/04/08 03:47:54;;;;;;;;;;;;;;;16.80;48.06;101471.47;5424029;26;1354;-56
2024/04/08 03:50:19;;;;;;;;;;;;;;;16.18;51.82;101476.06;5430202;26;1521;-56
2024/04/08 03:52:45;;;;;;;;;;;;;;;18.41;46.65;101477.94;5434496;26;1523;-61
2024/04/08 03:55:15;;;;;;;;;;;;;;;14.85;53.62;101478.13;5435592;26;1327;-59
2024/04/08 03:57:41;;;;;;;;;;;;;;;15.41;51.13;101475.91;5456859;26;1253;-58
2024/04/08 04:00:07;;;;;;;;;;;;;;;17.13;49.48;101480.94;5441927;26;1301;-59
2024/04/08 04:02:32;;;;;;;;;;;;;;;16.22;49.83;101478.44;5453408;26;1048;-54
2024/04/08 04:04:58;;;;;;;;;;;;;;;15.93;48.88;101481.00;5434212;26;1821;-57
2024/04/08 04:07:23;;;;;;;;;;;;;;;17.27;46.79;101481.88;5446687;26;1137;-56
2024/04/08 04:09:49;;;;;;;;;;;;;;;17.29;46.47;101483.47;5456243;26;1186;-56
2024/04/08 04:12:14;;;;;;;;;;;;;;;16.93;47.01;101488.34;5438744;26;1809;-59
2024/04/08 04:14:40;;;;;;;;;;;;;;;16.08;47.47;101373.06;5446407;26;1082;-59
2024/04/08 04:17:05;;;;;;;;;;;;;;;16.64;47.76;101496.31;5457612;26;1369;-59
2024/04/08 04:19:32;;;;;;;;;;;;;;;16.47;48.18;101492.88;5459043;26;1182;-60
2024/04/08 04:21:57;;;;;;;;;;;;;;;16.33;48.20;101499.00;5458672;26;1366;-55
2024/04/08 04:24:23;;;;;;;;;;;;;;;16.21;48.74;101497.97;5458644;26;1823;-60
2024/04/08 04:26:48;;;;;;;;;;;;;;;16.16;48.64;101494.72;5457979;26;1127;-60
2024/04/08 04:29:13;;;;;;;;;;;;;;;16.11;48.83;101495.00;5458622;26;1294;-59
2024/04/08 04:31:43;;;;;;;;;;;;;;;16.01;48.91;101493.84;5458671;26;1216;-58
2024/04/08 04:34:08;;;;;;;;;;;;;;;15.95;49.04;101491.50;5458619;26;1272;-60
2024/04/08 04:36:34;;;;;;;;;;;;;;;15.81;49.40;101498.47;5458528;26;1122;-60
2024/04/08 04:38:59;;;;;;;;;;;;;;;17.23;46.48;101490.00;5457833;26;1211;-59
2024/04/08 04:41:25;;;;;;;;;;;;;;;17.06;46.52;101496.41;5458462;26;1184;-59
2024/04/08 04:43:50;;;;;;;;;;;;;;;16.57;47.58;101501.16;5458593;26;1822;-59
2024/04/08 04:46:16;;;;;;;;;;;;;;;16.34;48.38;101499.88;5443579;26;1144;-60
2024/04/08 04:48:41;;;;;;;;;;;;;;;16.06;49.09;101499.72;5449904;26;1206;-59
2024/04/08 04:51:07;;;;;;;;;;;;;;;15.91;49.37;101502.28;5457693;26;1071;-59
2024/04/08 04:53:32;;;;;;;;;;;;;;;16.33;48.88;101512.28;5458016;26;1293;-57
2024/04/08 04:55:58;;;;;;;;;;;;;;;17.54;45.56;101503.16;5458101;26;1309;-60
2024/04/08 04:58:23;;;;;;;;;;;;;;;16.65;47.81;101516.59;5457850;26;1186;-57
2024/04/08 05:00:49;;;;;;;;;;;;;;;16.31;48.65;101510.69;5454657;26;1481;-59
2024/04/08 05:03:14;;;;;;;;;;;;;;;16.10;49.08;101514.50;5451885;26;1846;-57
2024/04/08 05:05:40;;;;;;;;;;;;;;;15.96;49.38;101515.31;5455892;26;1547;-61
2024/04/08 05:08:06;;;;;;;;;;;;;;;16.31;48.87;101510.69;5449054;26;1187;-59
2024/04/08 05:10:32;;;;;;;;;;;;;;;17.48;46.00;101501.72;5443817;26;1358;-59
2024/04/08 05:12:57;;;;;;;;;;;;;;;16.74;47.59;101504.56;5457944;26;1147;-56
2024/04/08 05:15:23;;;;;;;;;;;;;;;16.37;48.56;101499.69;5456293;26;1050;-58
2024/04/08 05:17:48;;;;;;;;;;;;;;;16.12;48.90;101491.41;5446343;26;1075;-56
2024/04/08 05:20:15;;;;;;;;;;;;;;;15.99;49.43;101496.56;5443317;26;1167;-56
2024/04/08 05:22:46;;;;;;;;;;;;;;;15.96;49.72;101487.91;5458351;26;1139;-58
2024/04/08 05:25:12;;;;;;;;;;;;;;;17.52;45.88;101494.41;5457955;26;1837;-54
2024/04/08 05:27:37;;;;;;;;;;;;;;;16.73;47.48;101493.06;5455920;26;1281;-61
2024/04/08 05:30:03;;;;;;;;;;;;;;;16.38;48.33;101499.59;5457742;26;1178;-56
2024/04/08 05:32:29;;;;;;;;;;;;;;;16.13;49.28;101503.72;5457562;26;1362;-59
2024/04/08 05:34:54;;;;;;;;;;;;;;;16.24;49.24;101504.88;5434386;26;1386;-61
2024/04/08 05:37:20;;;;;;;;;;;;;;;17.67;45.69;101499.66;5456878;26;1183;-61
2024/04/08 05:39:45;;;;;;;;;;;;;;;16.83;47.35;101501.31;5457179;26;1066;-61
2024/04/08 05:42:11;;;;;;;;;;;;;;;16.44;48.56;101495.72;5457549;26;1264;-58
2024/04/08 05:44:36;;;;;;;;;;;;;;;16.21;49.09;101489.13;5458173;26;1826;-58
2024/04/08 05:47:02;;;;;;;;;;;;;;;16.10;49.21;101487.97;5457913;26;1278;-57
2024/04/08 05:49:27;;;;;;;;;;;;;;;16.47;48.94;101495.53;5433884;26;1214;-60
2024/04/08 05:51:53;;;;;;;;;;;;;;;17.58;45.95;101493.16;5445042;26;1289;-57
2024/04/08 05:54:18;;;;;;;;;;;;;;;16.78;47.59;101498.13;5445517;26;1341;-59
2024/04/08 05:56:44;;;;;;;;;;;;;;;16.36;48.84;101498.00;5457457;26;1371;-59
2024/04/08 05:59:09;;;;;;;;;;;;;;;16.21;49.13;101500.63;5457108;26;1286;-58
2024/04/08 06:01:35;;;;;;;;;;;;;;;16.02;49.56;101499.06;5456856;26;1195;-60
2024/04/08 06:04:01;;;;;;;;;;;;;;;16.01;49.90;101502.66;5456502;26;1861;-57
2024/04/08 06:06:26;;;;;;;;;;;;;;;17.51;46.51;101503.34;5457070;26;1191;-54
2024/04/08 06:09:00;;;;;;;;;;;;;;;16.93;47.59;101503.44;5456822;26;1286;-59
2024/04/08 06:11:26;;;;;;;;;;;;;;;16.45;48.66;101509.88;5437659;26;1147;-57
2024/04/08 06:13:51;;;;;;;;;;;;;;;16.28;49.37;101507.25;5453166;26;1202;-59
2024/04/08 06:16:17;;;;;;;;;;;;;;;16.08;49.56;101510.25;5456622;26;1162;-61
2024/04/08 06:18:42;;;;;;;;;;;;;;;16.03;49.93;101505.22;5457635;26;1337;-60
2024/04/08 06:21:08;;;;;;;;;;;;;;;16.33;49.59;101516.75;5457223;26;1271;-57
2024/04/08 06:23:33;;;;;;;;;;;;;;;17.66;46.41;101516.59;5456999;26;1856;-60
2024/04/08 06:25:59;;;;;;;;;;;;;;;16.87;47.93;101517.94;5409782;26;1490;-58
2024/04/08 06:28:25;;;;;;;;;;;;;;;16.43;48.94;101520.59;5452569;26;1105;-59
2024/04/08 06:30:50;;;;;;;;;;;;;;;16.25;49.32;101527.81;5447732;26;1288;-58
2024/04/08 06:33:15;;;;;;;;;;;;;;;16.08;49.88;101523.53;5422931;26;1240;-58
2024/04/08 06:35:44;;;;;;;;;;;;;;;16.00;50.09;101527.47;5456395;26;1215;-58
2024/04/08 06:38:12;;;;;;;;;;;;;;;17.50;46.58;101525.56;5452275;26;1183;-61
2024/04/08 06:40:37;;;;;;;;;;;;;;;16.89;48.05;101522.22;5455478;26;1059;-59
2024/04/08 06:43:03;;;;;;;;;;;;;;;16.44;49.22;101526.72;5456316;26;1902;-57
2024/04/08 06:45:29;;;;;;;;;;;;;;;16.24;49.72;101524.34;5457274;26;1273;-58
2024/04/08 06:47:54;;;;;;;;;;;;;;;16.09;49.80;101525.22;5456234;26;1297;-58
2024/04/08 06:50:20;;;;;;;;;;;;;;;16.74;48.71;101531.13;5456061;26;1203;-59
2024/04/08 06:52:45;;;;;;;;;;;;;;;17.56;46.54;101527.84;5436556;26;1231;-59
2024/04/08 06:55:11;;;;;;;;;;;;;;;16.74;48.46;101526.69;5442414;26;1684;-59
2024/04/08 06:57:36;;;;;;;;;;;;;;;16.46;49.20;101532.81;5452102;26;1190;-60
2024/04/08 07:00:03;;;;;;;;;;;;;;;16.23;49.77;101529.72;5455975;26;1208;-54
2024/04/08 07:02:28;;;;;;;;;;;;;;;16.11;49.90;101539.28;5452405;26;1180;-61
2024/04/08 07:04:54;;;;;;;;;;;;;;;16.06;49.99;101536.88;5455375;26;1828;-58
2024/04/08 07:07:19;;;;;;;;;;;;;;;16.41;49.69;101535.75;5456215;26;1174;-59
2024/04/08 07:09:45;;;;;;;;;;;;;;;17.61;46.57;101532.88;5452886;26;1485;-58
2024/04/08 07:12:10;;;;;;;;;;;;;;;16.79;48.56;101546.78;5439351;26;1834;-60
2024/04/08 07:14:36;;;;;;;;;;;;;;;16.44;49.26;101540.00;5455532;26;1148;-61
2024/04/08 07:17:01;;;;;;;;;;;;;;;16.24;49.74;101534.09;5455214;26;1056;-60
2024/04/08 07:19:27;;;;;;;;;;;;;;;16.08;50.11;101536.78;5456033;26;1187;-58
2024/04/08 07:21:52;;;;;;;;;;;;;;;16.71;49.28;101534.84;5454586;26;1276;-58
2024/04/08 07:24:18;;;;;;;;;;;;;;;17.47;46.84;101529.28;5450834;26;1877;-59
2024/04/08 07:26:46;;;;;;;;;;;;;;;16.75;48.64;101535.50;5455943;26;1180;-58
2024/04/08 07:29:12;;;;;;;;;;;;;;;16.48;49.33;101531.75;5455544;26;1087;-62
2024/04/08 07:31:37;;;;;;;;;;;;;;;16.24;49.87;101537.59;5448788;26;1568;-58
2024/04/08 07:34:03;;;;;;;;;;;;;;;16.14;50.01;101525.81;5449965;26;1216;-57
2024/04/08 07:36:28;;;;;;;;;;;;;;;15.98;50.50;101528.47;5455640;26;1163;-60
2024/04/08 07:38:54;;;;;;;;;;;;;;;17.36;47.79;101537.13;5455091;26;1302;-60
2024/04/08 07:41:19;;;;;;;;;;;;;;;17.11;47.71;101539.53;5455090;26;1052;-59
2024/04/08 07:43:45;;;;;;;;;;;;;;;16.57;49.19;101537.47;5449896;26;1865;-59
2024/04/08 07:46:10;;;;;;;;;;;;;;;16.33;49.80;101536.19;5428538;26;1304;-55
2024/04/08 07:48:36;;;;;;;;;;;;;;;16.13;50.19;101540.88;5452497;26;1164;-62
2024/04/08 07:51:02;;;;;;;;;;;;;;;16.05;50.31;101547.59;5455595;26;1183;-59
2024/04/08 07:53:28;;;;;;;;;;;;;;;16.08;50.58;101545.59;5458187;26;1352;-58
2024/04/08 07:55:53;;;;;;;;;;;;;;;17.52;47.37;101544.13;5458891;26;1166;-59
2024/04/08 07:58:19;;;;;;;;;;;;;;;17.13;47.86;101555.38;5458594;26;1159;-59
2024/04/08 08:00:55;;;;;;;;;;;;;;;16.57;49.19;101541.00;5458668;26;1275;-58
2024/04/08 08:03:21;;;;;;;;;;;;;;;16.36;49.74;101546.66;5459161;26;1869;-61
2024/04/08 08:05:46;;;;;;;;;;;;;;;16.20;50.14;101559.13;5440824;26;1071;-63
2024/04/08 08:08:12;;;;;;;;;;;;;;;16.08;50.42;101550.91;5451579;26;1260;-59
2024/04/08 08:10:37;;;;;;;;;;;;;;;16.02;50.70;101554.78;5458801;26;1190;-58
2024/04/08 08:13:03;;;;;;;;;;;;;;;17.38;47.85;101552.00;5458843;26;1134;-59
2024/04/08 08:15:29;;;;;;;;;;;;;;;17.15;48.04;101557.94;5450019;26;1477;-55
2024/04/08 08:17:54;;;;;;;;;;;;;;;16.59;49.48;101554.16;5455148;26;1442;-54
2024/04/08 08:20:21;;;;;;;;;;;;;;;16.39;49.87;101550.91;5452846;26;1534;-57
2024/04/08 08:22:46;;;;;;;;;;;;;;;16.26;50.10;101553.44;5437987;26;1302;-52
2024/04/08 08:25:12;;;;;;;;;;;;;;;16.09;50.75;101549.97;5452233;26;1816;-58
2024/04/08 08:27:37;;;;;;;;;;;;;;;16.69;49.53;101542.06;5447621;26;1166;-60
2024/04/08 08:30:03;;;;;;;;;;;;;;;17.58;46.97;101544.56;5443704;26;1349;-58
2024/04/08 08:32:28;;;;;;;;;;;;;;;16.74;49.24;101552.38;5462542;26;3291;-59
2024/04/08 08:34:54;;;;;;;;;;;;;;;16.43;50.15;101547.16;5457647;26;2313;-60
2024/04/08 08:37:19;;;;;;;;;;;;;;;16.27;50.26;101541.88;5457713;26;2299;-59
2024/04/08 08:39:50;;;;;;;;;;;;;;;16.10;50.58;101551.69;5456972;26;2281;-58
2024/04/08 08:42:19;;;;;;;;;;;;;;;16.68;49.92;101552.78;5409094;26;2228;-63
2024/04/08 08:44:46;;;;;;;;;;;;;;;17.37;48.02;101533.50;5426954;26;2357;-64
2024/04/08 08:47:11;;;;;;;;;;;;;;;16.69;49.50;101546.50;5444171;26;1331;-57
2024/04/08 08:49:36;;;;;;;;;;;;;;;16.46;49.88;101552.25;5425786;26;1137;-58
2024/04/08 08:52:05;;;;;;;;;;;;;;;16.24;50.51;101539.41;5395800;26;1121;-56
2024/04/08 08:54:30;;;;;;;;;;;;;;;16.15;50.56;101546.09;5457252;26;1164;-58
2024/04/08 08:56:56;;;;;;;;;;;;;;;16.02;50.89;101536.22;5454012;26;1502;-59
2024/04/08 08:59:21;;;;;;;;;;;;;;;16.60;50.03;101535.47;5411170;26;1179;-61
2024/04/08 09:01:47;;;;;;;;;;;;;;;17.55;47.35;101523.47;5451363;26;1276;-57
2024/04/08 09:04:13;;;;;;;;;;;;;;;16.70;49.25;101530.47;5446777;26;1830;-60
2024/04/08 09:06:42;;;;;;;;;;;;;;;16.43;50.06;101533.00;5457370;26;1207;-61
2024/04/08 09:09:11;;;;;;;;;;;;;;;16.21;50.69;101523.66;5457184;26;1131;-58
2024/04/08 09:11:44;;;;;;;;;;;;;;;16.11;50.82;101524.22;5420350;26;1658;-59
2024/04/08 09:14:10;;;;;;;;;;;;;;;16.02;51.10;101528.25;5452620;26;2884;-56
2024/04/08 09:16:35;;;;;;;;;;;;;;;16.92;49.24;101523.81;5455357;26;1204;-57
2024/04/08 09:19:02;;;;;;;;;;;;;;;17.41;48.04;101523.50;5457182;26;1171;-58
2024/04/08 09:21:28;;;;;;;;;;;;;;;16.67;49.61;101528.00;5457352;26;1166;-55
2024/04/08 09:24:06;;;;;;;;;;;;;;;16.41;50.26;101522.47;5456512;26;1869;-57
2024/04/08 09:26:31;;;;;;;;;;;;;;;16.22;50.72;101514.72;5433769;26;1341;-60
2024/04/08 09:28:57;;;;;;;;;;;;;;;16.08;50.84;101507.59;5455928;26;1509;-57
2024/04/08 09:31:23;;;;;;;;;;;;;;;16.53;50.52;101515.56;5444635;26;1167;-61
2024/04/08 09:33:49;;;;;;;;;;;;;;;17.52;47.69;101504.22;5445649;26;1334;-60
2024/04/08 09:36:17;;;;;;;;;;;;;;;16.77;49.67;101505.22;5444151;26;1342;-59
2024/04/08 09:38:42;;;;;;;;;;;;;;;16.48;50.25;101509.69;5445887;26;1238;-58
2024/04/08 09:41:08;;;;;;;;;;;;;;;16.23;50.80;101505.84;5457616;26;1034;-58
2024/04/08 09:43:34;;;;;;;;;;;;;;;16.20;50.83;101498.06;5419964;26;1842;-58
2024/04/08 09:46:00;;;;;;;;;;;;;;;16.03;51.21;101499.91;5419726;26;1278;-57
2024/04/08 09:48:25;;;;;;;;;;;;;;;15.96;51.27;101501.19;5418509;26;1334;-59
2024/04/08 09:50:51;;;;;;;;;;;;;;;16.50;50.67;101502.44;5398897;26;1342;-59
2024/04/08 09:53:16;;;;;;;;;;;;;;;17.60;47.47;101496.59;5418971;26;1254;-58
2024/04/08 09:55:42;;;;;;;;;;;;;;;16.82;49.24;101501.44;5418017;26;1629;-57
2024/04/08 09:58:08;;;;;;;;;;;;;;;16.49;50.22;101485.69;5400245;26;1771;-58
2024/04/08 10:00:34;;;;;;;;;;;;;;;16.24;50.84;101489.81;5420887;26;1174;-60
2024/04/08 10:03:02;;;;;;;;;;;;;;;16.18;51.03;101481.38;5397065;26;1221;-58
2024/04/08 10:05:27;;;;;;;;;;;;;;;16.57;50.61;101482.53;5408515;26;1406;-59
2024/04/08 10:07:54;;;;;;;;;;;;;;;17.49;48.02;101486.63;5399383;26;1560;-59
2024/04/08 10:10:19;;;;;;;;;;;;;;;16.77;49.66;101483.13;5412239;26;1116;-60
2024/04/08 10:12:45;;;;;;;;;;;;;;;16.44;50.49;101482.44;5409713;26;1400;-59
2024/04/08 10:15:11;;;;;;;;;;;;;;;16.21;51.03;101483.84;5407953;26;1319;-60
2024/04/08 10:17:36;;;;;;;;;;;;;;;16.13;51.08;101468.38;5409056;26;1452;-57
2024/04/08 10:20:05;;;;;;;;;;;;;;;16.06;51.11;101472.31;5406718;26;1249;-58
2024/04/08 10:22:32;;;;;;;;;;;;;;;15.97;51.28;101469.25;5388910;26;1260;-61
2024/04/08 10:24:57;;;;;;;;;;;;;;;17.10;49.09;101459.88;5420666;26;1860;-57
2024/04/08 10:27:24;;;;;;;;;;;;;;;17.34;48.33;101459.22;5420764;26;1167;-58
2024/04/08 10:29:55;;;;;;;;;;;;;;;16.70;49.66;101463.22;5418187;26;1051;-59
2024/04/08 10:32:20;;;;;;;;;;;;;;;16.37;50.57;101466.03;5420947;26;1385;-61
2024/04/08 10:34:46;;;;;;;;;;;;;;;16.23;51.08;101458.88;5420718;26;1188;-59
2024/04/08 10:37:11;;;;;;;;;;;;;;;16.07;51.31;101456.31;5396624;26;1317;-59
2024/04/08 10:39:37;;;;;;;;;;;;;;;16.07;51.21;101458.09;5401858;26;1270;-60
2024/04/08 10:42:13;;;;;;;;;;;;;;;17.21;48.88;101452.06;5405423;26;1212;-59
2024/04/08 10:44:39;;;;;;;;;;;;;;;17.23;48.27;101449.31;5425617;26;1875;-59
2024/04/08 10:47:08;;;;;;;;;;;;;;;16.62;50.37;101453.91;5438419;26;1596;-52
2024/04/08 10:49:37;;;;;;;;;;;;;;;16.45;50.44;101446.13;5455986;26;1368;-50
2024/04/08 10:52:02;;;;;;;;;;;;;;;16.29;50.75;101439.09;5455372;26;1275;-53
2024/04/08 10:54:31;;;;;;;;;;;;;;;16.13;51.08;101449.78;5432214;26;1166;-58
2024/04/08 10:56:56;;;;;;;;;;;;;;;16.02;51.43;101448.63;5433098;26;1257;-57
2024/04/08 10:59:22;;;;;;;;;;;;;;;17.24;49.14;101448.34;5456399;26;1119;-56
2024/04/08 11:01:47;;;;;;;;;;;;;;;17.17;48.91;101436.38;5450784;26;1152;-57
2024/04/08 11:04:13;;;;;;;;;;;;;;;16.55;50.08;101441.94;5424505;26;1846;-58
2024/04/08 11:06:39;;;;;;;;;;;;;;;16.40;50.67;101446.38;5444355;26;1369;-58
2024/04/08 11:09:05;;;;;;;;;;;;;;;16.21;50.94;101436.91;5408178;26;1201;-58
2024/04/08 11:11:31;;;;;;;;;;;;;;;16.08;51.40;101431.47;5456126;26;1179;-53
2024/04/08 11:13:56;;;;;;;;;;;;;;;16.00;51.47;101429.28;5455712;26;1195;-52
2024/04/08 11:16:22;;;;;;;;;;;;;;;16.25;51.26;101433.09;5434189;26;1545;-52
2024/04/08 11:18:47;;;;;;;;;;;;;;;17.57;47.90;101436.44;5430640;26;968;-55
2024/04/08 11:21:13;;;;;;;;;;;;;;;16.89;49.47;101429.22;5455519;26;1285;-54
2024/04/08 11:23:42;;;;;;;;;;;;;;;16.52;50.27;101429.72;5455919;26;1820;-58
2024/04/08 11:26:07;;;;;;;;;;;;;;;16.29;51.03;101428.47;5457949;26;1250;-56
2024/04/08 11:28:33;;;;;;;;;;;;;;;16.12;51.35;101429.47;5459151;26;1261;-53
2024/04/08 11:31:03;;;;;;;;;;;;;;;16.06;51.35;101409.50;5458741;26;1323;-57
2024/04/08 11:33:29;;;;;;;;;;;;;;;15.96;51.60;101422.44;5448054;26;1509;-53
2024/04/08 11:35:54;;;;;;;;;;;;;;;17.11;49.72;101406.59;5450219;26;1210;-53
2024/04/08 11:38:20;;;;;;;;;;;;;;;17.35;48.62;101402.44;5454886;26;1209;-49
2024/04/08 11:40:46;;;;;;;;;;;;;;;16.71;50.25;101402.00;5426931;26;1289;-50
2024/04/08 11:43:11;;;;;;;;;;;;;;;16.45;50.65;101393.84;5458027;26;1816;-51
2024/04/08 11:45:37;;;;;;;;;;;;;;;16.28;51.09;101397.56;5437982;26;1275;-48
2024/04/08 11:48:03;;;;;;;;;;;;;;;16.18;51.16;101399.06;5448584;26;1267;-52
2024/04/08 11:50:28;;;;;;;;;;;;;;;16.08;51.58;101398.78;5438467;26;1553;-50
2024/04/08 11:52:54;;;;;;;;;;;;;;;17.45;48.63;101400.84;5455767;26;1171;-53
2024/04/08 11:55:19;;;;;;;;;;;;;;;17.01;49.42;101385.06;5432255;26;1388;-48
2024/04/08 11:57:45;;;;;;;;;;;;;;;16.49;50.87;101383.91;5440121;26;1194;-49
2024/04/08 12:00:15;;;;;;;;;;;;;;;16.33;51.08;101384.84;5437749;26;1285;-51
2024/04/08 12:02:41;;;;;;;;;;;;;;;16.19;51.12;101385.72;5458749;26;1255;-56
2024/04/08 12:05:07;;;;;;;;;;;;;;;16.13;51.31;101383.44;5455780;26;1821;-51
2024/04/08 12:07:32;;;;;;;;;;;;;;;15.99;51.67;101381.59;5440406;26;1079;-49
2024/04/08 12:09:57;;;;;;;;;;;;;;;17.30;49.39;101375.31;5415499;26;1460;-51
2024/04/08 12:12:23;;;;;;;;;;;;;;;17.28;48.49;101366.56;5441617;26;1163;-54
2024/04/08 12:14:48;;;;;;;;;;;;;;;16.65;50.38;101373.16;5455164;26;1297;-49
2024/04/08 12:17:14;;;;;;;;;;;;;;;16.45;50.84;101379.75;5438697;26;1260;-52
2024/04/08 12:19:40;;;;;;;;;;;;;;;16.24;51.29;101378.31;5457844;26;1101;-54
2024/04/08 12:22:05;;;;;;;;;;;;;;;16.13;51.40;101376.31;5443628;26;1223;-55
2024/04/08 12:24:31;;;;;;;;;;;;;;;16.04;51.50;101366.25;5425254;26;1825;-51
2024/04/08 12:26:57;;;;;;;;;;;;;;;17.26;49.28;101366.66;5458368;26;1140;-52
2024/04/08 12:29:22;;;;;;;;;;;;;;;17.28;48.84;101367.44;5458702;26;1184;-51
2024/04/08 12:31:48;;;;;;;;;;;;;;;16.64;50.50;101364.34;5443408;26;1110;-49
2024/04/08 12:34:13;;;;;;;;;;;;;;;16.46;50.84;101363.72;5448677;26;1223;-50
2024/04/08 12:36:38;;;;;;;;;;;;;;;16.32;51.20;101358.38;5458323;26;1104;-55
2024/04/08 12:39:04;;;;;;;;;;;;;;;16.19;51.10;101356.50;5458386;26;1214;-50
2024/04/08 12:41:29;;;;;;;;;;;;;;;16.07;51.54;101357.25;5458269;26;1271;-53